Time;durP1;ratioP1;P1;durP2;ratioP2;P2;SDS_P1;SDS_P2;PMS_P1;PMS_P2;Temp;Humidity;BMP_temperature;BMP_pressure;BME280_temperature;BME280_humidity;BME280_pressure;Samples;Min_cycle;Max_cycle;Signal;HPM_P1;HPM_P2
2023/11/03 00:01:50;;;;;;;;;;;;;;;8.28;100.00;96645.41;5004554;28;20012;-87
2023/11/03 00:04:16;;;;;;;;;;;;;;;8.29;100.00;96651.50;5007006;28;20008;-88
2023/11/03 00:06:43;;;;;;;;;;;;;;;8.28;100.00;96665.66;5021937;28;20322;-86
2023/11/03 00:09:08;;;;;;;;;;;;;;;8.29;100.00;96662.06;5006841;28;19921;-88
2023/11/03 00:11:35;;;;;;;;;;;;;;;8.25;100.00;96665.91;5004696;28;19975;-89
2023/11/03 00:14:03;;;;;;;;;;;;;;;8.26;100.00;96663.13;5006645;28;19921;-92
2023/11/03 00:16:29;;;;;;;;;;;;;;;8.29;100.00;96662.06;5006831;28;20296;-86
2023/11/03 00:18:57;;;;;;;;;;;;;;;8.31;100.00;96662.75;5022176;28;19921;-87
2023/11/03 00:21:23;;;;;;;;;;;;;;;8.28;100.00;96666.50;5021773;28;19989;-88
2023/11/03 00:23:48;;;;;;;;;;;;;;;8.28;100.00;96670.91;5006207;28;19921;-90
2023/11/03 00:26:14;;;;;;;;;;;;;;;8.33;100.00;96669.59;5024178;28;19924;-88
2023/11/03 00:28:40;;;;;;;;;;;;;;;8.25;100.00;96674.66;5005107;28;20380;-88
2023/11/03 00:31:05;;;;;;;;;;;;;;;8.30;100.00;96675.13;5023995;28;19921;-90
2023/11/03 00:33:30;;;;;;;;;;;;;;;8.35;100.00;96669.47;5023973;28;20407;-90
2023/11/03 00:35:57;;;;;;;;;;;;;;;8.31;100.00;96675.94;5023145;28;20011;-89
2023/11/03 00:38:25;;;;;;;;;;;;;;;8.27;100.00;96671.91;5019283;28;19918;-90
2023/11/03 00:40:53;;;;;;;;;;;;;;;8.24;100.00;96675.63;5004250;28;19930;-90
2023/11/03 00:43:18;;;;;;;;;;;;;;;8.24;100.00;96674.78;5009038;28;19948;-92
2023/11/03 00:45:44;;;;;;;;;;;;;;;8.30;100.00;96663.75;5023717;28;19917;-89
2023/11/03 06:14:49;;;;;;;;;;;;;;;8.81;100.00;96773.03;4961228;28;20020;-85
2023/11/03 06:17:14;;;;;;;;;;;;;;;8.82;100.00;96764.13;4954851;28;20064;-86
2023/11/03 06:19:39;;;;;;;;;;;;;;;8.89;100.00;96773.22;4946461;28;20381;-85
2023/11/03 06:22:05;;;;;;;;;;;;;;;8.86;100.00;96770.84;4946234;28;19918;-85
2023/11/03 06:24:30;;;;;;;;;;;;;;;8.89;100.00;96774.06;4963902;28;19918;-85
2023/11/03 06:26:59;;;;;;;;;;;;;;;8.87;100.00;96770.72;4962384;28;20262;-86
2023/11/03 06:29:24;;;;;;;;;;;;;;;8.85;100.00;96783.19;4963378;28;19922;-87
2023/11/03 06:31:50;;;;;;;;;;;;;;;8.85;100.00;96780.53;4970365;28;19918;-85
2023/11/03 06:34:15;;;;;;;;;;;;;;;8.82;100.00;96794.03;4946679;28;19922;-86
2023/11/03 06:36:40;;;;;;;;;;;;;;;8.88;100.00;96792.66;4946273;28;20281;-88
2023/11/03 06:39:05;;;;;;;;;;;;;;;8.88;100.00;96797.94;4945998;28;19922;-86
2023/11/03 06:41:30;;;;;;;;;;;;;;;8.87;100.00;96810.31;4962362;28;19961;-84
2023/11/03 06:43:56;;;;;;;;;;;;;;;8.87;100.00;96820.03;4963689;28;19922;-84
2023/11/03 06:46:22;;;;;;;;;;;;;;;8.86;100.00;96829.75;4963465;28;19919;-84
2023/11/03 06:48:47;;;;;;;;;;;;;;;8.86;100.00;96832.41;4946064;28;19956;-85
2023/11/03 06:51:12;;;;;;;;;;;;;;;8.92;100.00;96823.16;4963718;28;19922;-85
2023/11/03 06:53:38;;;;;;;;;;;;;;;8.92;100.00;96833.72;4946460;28;19930;-85
2023/11/03 06:56:04;;;;;;;;;;;;;;;8.95;100.00;96838.72;4962994;28;20017;-85
2023/11/03 06:58:29;;;;;;;;;;;;;;;8.96;100.00;96843.03;4944471;28;19933;-85
2023/11/03 07:00:54;;;;;;;;;;;;;;;8.90;100.00;96854.97;4946468;28;20441;-83
2023/11/03 07:03:19;;;;;;;;;;;;;;;8.93;100.00;96853.03;4963480;28;20346;-84
2023/11/03 07:05:46;;;;;;;;;;;;;;;8.96;100.00;96856.22;4945816;28;19919;-84
2023/11/03 07:08:11;;;;;;;;;;;;;;;8.94;100.00;96862.63;4962561;28;19969;-85
2023/11/03 07:10:36;;;;;;;;;;;;;;;8.97;100.00;96865.00;4948135;28;19958;-84
2023/11/03 07:13:03;;;;;;;;;;;;;;;8.96;100.00;96871.25;4948068;28;20325;-84
2023/11/03 07:15:30;;;;;;;;;;;;;;;8.99;100.00;96873.63;4967105;28;19918;-84
2023/11/03 07:17:58;;;;;;;;;;;;;;;9.07;100.00;96879.13;4948899;28;20386;-85
2023/11/03 07:20:24;;;;;;;;;;;;;;;9.15;100.00;96881.97;4973505;28;19924;-84
2023/11/03 07:22:49;;;;;;;;;;;;;;;9.25;100.00;96888.16;4949536;28;19918;-84
2023/11/03 07:25:14;;;;;;;;;;;;;;;9.31;100.00;96883.34;4949133;28;19918;-84
2023/11/03 07:27:40;;;;;;;;;;;;;;;9.31;100.00;96885.97;4947640;28;19919;-84
2023/11/03 07:30:06;;;;;;;;;;;;;;;9.25;100.00;96898.75;4966663;28;20281;-84
2023/11/03 07:32:31;;;;;;;;;;;;;;;9.31;100.00;96907.13;4963693;28;19927;-85
2023/11/03 07:34:56;;;;;;;;;;;;;;;9.30;100.00;96919.47;4966152;28;20381;-84
2023/11/03 07:37:21;;;;;;;;;;;;;;;9.26;100.00;96918.88;4966247;28;19925;-85
2023/11/03 07:39:49;;;;;;;;;;;;;;;9.42;100.00;96925.53;4966185;28;19943;-85
2023/11/03 07:42:15;;;;;;;;;;;;;;;9.26;100.00;96937.38;4965498;28;20392;-86
2023/11/03 07:44:40;;;;;;;;;;;;;;;9.16;100.00;96936.47;4966270;28;19918;-84
2023/11/03 07:47:09;;;;;;;;;;;;;;;9.13;100.00;96942.00;4966660;28;19914;-85
2023/11/03 07:49:36;;;;;;;;;;;;;;;9.15;100.00;96950.63;4965974;28;20033;-84
2023/11/03 07:52:02;;;;;;;;;;;;;;;9.42;100.00;96963.38;4966232;28;20353;-84
2023/11/03 07:54:27;;;;;;;;;;;;;;;9.47;100.00;96965.63;4966017;28;19921;-88
2023/11/03 07:56:52;;;;;;;;;;;;;;;9.47;100.00;96965.63;4963301;28;20202;-87
2023/11/03 07:59:17;;;;;;;;;;;;;;;9.36;100.00;96960.41;4966750;28;19921;-88
2023/11/03 08:01:43;;;;;;;;;;;;;;;9.42;100.00;96967.84;4949011;28;20001;-88
2023/11/03 08:04:08;;;;;;;;;;;;;;;9.47;100.00;96975.38;4965595;28;20369;-88
2023/11/03 08:06:34;;;;;;;;;;;;;;;9.38;100.00;96980.47;4948572;28;19964;-86
2023/11/03 08:08:59;;;;;;;;;;;;;;;9.30;100.00;96974.13;4966320;28;19937;-88
2023/11/03 08:11:24;;;;;;;;;;;;;;;9.21;100.00;96978.38;4965853;28;19922;-88
2023/11/03 08:44:51;;;;;;;;;;;;;;;9.32;100.00;96995.97;5619266;23;19934;-86
2023/11/03 08:47:16;;;;;;;;;;;;;;;9.30;100.00;97000.53;4996391;28;19932;-85
2023/11/03 08:49:42;;;;;;;;;;;;;;;9.26;100.00;97006.09;4997097;28;19918;-86
2023/11/03 08:52:07;;;;;;;;;;;;;;;9.36;100.00;97005.34;4999371;28;20394;-88
2023/11/03 08:54:33;;;;;;;;;;;;;;;9.35;100.00;97019.50;4996197;28;19917;-88
2023/11/03 08:56:58;;;;;;;;;;;;;;;9.33;100.00;97018.78;4995985;28;20331;-88
2023/11/03 08:59:23;;;;;;;;;;;;;;;9.35;100.00;97020.34;5012560;28;19932;-88
2023/11/03 09:01:53;;;;;;;;;;;;;;;9.34;100.00;97017.84;5013798;28;20391;-86
2023/11/03 09:04:19;;;;;;;;;;;;;;;9.30;100.00;97016.41;5014232;28;19956;-88
2023/11/03 09:06:44;;;;;;;;;;;;;;;9.25;100.00;97025.56;5013651;28;19965;-88
2023/11/03 09:09:14;;;;;;;;;;;;;;;9.22;100.00;97011.75;5013338;28;20372;-86
2023/11/03 09:11:41;;;;;;;;;;;;;;;9.22;100.00;97015.25;5013307;28;19924;-87
2023/11/03 09:14:07;;;;;;;;;;;;;;;9.41;100.00;97011.06;4994430;28;20012;-88
2023/11/03 09:16:33;;;;;;;;;;;;;;;9.32;100.00;97011.81;5013495;28;19921;-93
2023/11/03 09:18:59;;;;;;;;;;;;;;;9.34;100.00;97023.97;4990585;28;19940;-90
2023/11/03 09:21:25;;;;;;;;;;;;;;;9.33;100.00;97027.56;4995909;28;19923;-87
2023/11/03 09:23:51;;;;;;;;;;;;;;;9.34;100.00;97028.41;5013962;28;19918;-87
2023/11/03 09:26:16;;;;;;;;;;;;;;;9.35;100.00;97024.78;5013173;28;19922;-87
2023/11/03 09:28:43;;;;;;;;;;;;;;;9.32;100.00;97020.59;5012767;28;19968;-95
2023/11/03 09:31:08;;;;;;;;;;;;;;;9.34;100.00;97025.78;5017288;28;19922;-95
2023/11/03 09:33:33;;;;;;;;;;;;;;;9.40;100.00;97028.75;5019108;28;20016;-87
2023/11/03 09:36:05;;;;;;;;;;;;;;;9.39;100.00;97027.06;5013262;28;20004;-93
2023/11/03 09:38:31;;;;;;;;;;;;;;;9.37;100.00;97028.16;5013340;28;20116;-89
2023/11/03 09:40:56;;;;;;;;;;;;;;;9.38;100.00;97029.81;5013063;28;19924;-94
2023/11/03 09:43:22;;;;;;;;;;;;;;;9.31;100.00;97031.31;5013110;28;19921;-86
2023/11/03 09:45:48;;;;;;;;;;;;;;;9.31;100.00;97028.66;5011349;28;19932;-87
2023/11/03 09:48:13;;;;;;;;;;;;;;;9.47;100.00;97042.28;5012956;28;20296;-87
2023/11/03 09:50:39;;;;;;;;;;;;;;;9.38;100.00;97035.97;4995204;28;19928;-87
2023/11/03 09:53:11;;;;;;;;;;;;;;;9.39;100.00;97042.91;5012573;28;19964;-88
2023/11/03 09:55:39;;;;;;;;;;;;;;;9.34;100.00;97034.53;5013493;28;19949;-90
2023/11/03 09:58:07;;;;;;;;;;;;;;;9.44;100.00;97039.91;4995118;28;20336;-86
2023/11/03 10:00:33;;;;;;;;;;;;;;;9.35;100.00;97040.63;5013082;28;19928;-88
2023/11/03 10:02:58;;;;;;;;;;;;;;;9.35;100.00;97045.94;5013766;28;19917;-87
2023/11/03 10:05:27;;;;;;;;;;;;;;;9.39;100.00;97032.34;5012359;28;19917;-90
2023/11/03 10:07:54;;;;;;;;;;;;;;;9.44;100.00;97039.91;5012844;28;19929;-91
2023/11/03 10:10:20;;;;;;;;;;;;;;;9.39;100.00;97034.16;4999531;28;19921;-95
2023/11/03 10:12:45;;;;;;;;;;;;;;;9.40;100.00;97033.19;5015287;28;20287;-88
2023/11/03 10:15:12;;;;;;;;;;;;;;;9.50;100.00;97031.47;5011789;28;19925;-87
2023/11/03 10:17:37;;;;;;;;;;;;;;;9.52;100.00;97026.88;5012475;28;19917;-87
2023/11/03 10:20:03;;;;;;;;;;;;;;;9.50;100.00;97028.81;5012461;28;20032;-87
2023/11/03 10:22:29;;;;;;;;;;;;;;;9.46;100.00;97030.03;5014058;28;20368;-87
2023/11/03 10:24:56;;;;;;;;;;;;;;;9.44;100.00;97030.19;5017266;28;19929;-95
2023/11/03 10:27:21;;;;;;;;;;;;;;;9.44;100.00;97018.75;4995455;28;20385;-85
2023/11/03 10:29:51;;;;;;;;;;;;;;;9.50;100.00;97023.53;5011345;28;20012;-94
2023/11/03 10:32:18;;;;;;;;;;;;;;;9.49;100.00;97021.03;5013031;28;19925;-87
2023/11/03 10:34:44;;;;;;;;;;;;;;;9.44;100.00;97018.75;5012188;28;19924;-87
2023/11/03 10:37:11;;;;;;;;;;;;;;;9.50;100.00;97023.53;5011230;28;20032;-84
2023/11/03 10:39:37;;;;;;;;;;;;;;;9.50;100.00;97031.47;4994479;28;19956;-85
2023/11/03 10:42:02;;;;;;;;;;;;;;;9.50;100.00;97034.09;5012693;28;19964;-89
2023/11/03 10:44:37;;;;;;;;;;;;;;;9.45;100.00;97036.28;4994057;28;19925;-84
2023/11/03 10:47:06;;;;;;;;;;;;;;;9.51;100.00;97040.22;5015417;28;19925;-87
2023/11/03 10:49:40;;;;;;;;;;;;;;;9.50;100.00;97036.75;5017634;28;20368;-86
2023/11/03 10:52:08;;;;;;;;;;;;;;;9.63;100.00;97047.16;5015759;28;19929;-84
2023/11/03 10:54:40;;;;;;;;;;;;;;;9.56;100.00;97049.47;5015522;28;19944;-85
2023/11/03 10:57:06;;;;;;;;;;;;;;;9.53;100.00;97048.88;4998218;28;20419;-84
2023/11/03 10:59:32;;;;;;;;;;;;;;;9.53;100.00;97044.44;5013755;28;19917;-86
2023/11/03 11:02:04;;;;;;;;;;;;;;;9.50;100.00;97049.13;5015818;28;19975;-83
2023/11/03 11:04:38;;;;;;;;;;;;;;;9.49;100.00;97050.94;5015710;28;19917;-85
2023/11/03 11:07:07;;;;;;;;;;;;;;;9.59;100.00;97049.22;5015148;28;19917;-85
2023/11/03 11:09:42;;;;;;;;;;;;;;;9.57;100.00;97045.88;5014689;28;19924;-85
2023/11/03 11:12:08;;;;;;;;;;;;;;;9.57;100.00;97045.88;5015469;28;19928;-86
2023/11/03 11:14:37;;;;;;;;;;;;;;;9.57;100.00;97042.38;5014266;28;19921;-86
2023/11/03 11:17:06;;;;;;;;;;;;;;;9.54;100.00;97039.97;5014726;28;19921;-88
2023/11/03 11:19:35;;;;;;;;;;;;;;;9.49;100.00;97034.22;5018194;28;20302;-84
2023/11/03 11:22:26;;;;;;;;;;;;;;;9.47;100.00;97036.16;5016283;28;20028;-87
2023/11/03 11:24:50;;;;;;;;;;;;;;;9.52;100.00;97036.63;5015315;28;19964;-85
2023/11/03 11:27:19;;;;;;;;;;;;;;;9.48;100.00;97036.03;5013650;28;19995;-85
2023/11/03 11:29:51;;;;;;;;;;;;;;;9.55;100.00;97036.38;5014814;28;20258;-85
2023/11/03 11:32:18;;;;;;;;;;;;;;;9.56;100.00;97033.59;5014651;28;20323;-88
2023/11/03 11:34:44;;;;;;;;;;;;;;;9.56;100.00;97030.13;5015142;28;19913;-87
2023/11/03 11:37:29;;;;;;;;;;;;;;;9.55;100.00;97036.38;5015143;28;20372;-83
2023/11/03 11:40:00;;;;;;;;;;;;;;;9.55;100.00;97041.66;5014376;28;20068;-90
2023/11/03 11:42:32;;;;;;;;;;;;;;;9.59;100.00;97033.34;5014576;28;19943;-87
2023/11/03 11:44:59;;;;;;;;;;;;;;;9.62;100.00;97035.75;5013292;28;19963;-85
2023/11/03 11:47:25;;;;;;;;;;;;;;;9.54;100.00;97030.25;5014856;28;19921;-84
2023/11/03 11:49:52;;;;;;;;;;;;;;;9.53;100.00;97033.84;5014934;28;20280;-86
2023/11/03 11:52:18;;;;;;;;;;;;;;;9.53;100.00;97043.59;5015037;28;20286;-84
2023/11/03 11:54:43;;;;;;;;;;;;;;;9.51;100.00;97043.72;5014687;28;20011;-85
2023/11/03 11:57:09;;;;;;;;;;;;;;;9.55;100.00;97042.50;5013834;28;20416;-89
2023/11/03 11:59:35;;;;;;;;;;;;;;;9.55;100.00;97034.56;5015923;28;19917;-94
2023/11/03 12:02:00;;;;;;;;;;;;;;;9.49;100.00;97037.72;5014925;28;20411;-86
2023/11/03 12:04:29;;;;;;;;;;;;;;;9.51;100.00;97038.44;5002613;28;19940;-84
2023/11/03 12:06:57;;;;;;;;;;;;;;;9.55;100.00;97031.91;5014423;28;19925;-85
2023/11/03 12:09:22;;;;;;;;;;;;;;;9.49;100.00;97032.41;5014585;28;19917;-84
2023/11/03 12:11:48;;;;;;;;;;;;;;;9.50;100.00;97041.22;5021842;28;19928;-87
2023/11/03 12:14:14;;;;;;;;;;;;;;;9.52;100.00;97045.38;5020132;28;19961;-84
2023/11/03 12:16:39;;;;;;;;;;;;;;;9.50;100.00;97042.03;5014525;28;19968;-86
2023/11/03 12:19:05;;;;;;;;;;;;;;;9.54;100.00;97048.75;4996935;28;19921;-86
2023/11/03 12:21:30;;;;;;;;;;;;;;;9.53;100.00;97051.53;4996633;28;20364;-87
2023/11/03 12:23:57;;;;;;;;;;;;;;;9.52;100.00;97041.91;5013891;28;19940;-84
2023/11/03 12:26:23;;;;;;;;;;;;;;;9.56;100.00;97051.28;5014173;28;19921;-85
2023/11/03 12:28:48;;;;;;;;;;;;;;;9.57;100.00;97052.94;4994480;28;19917;-86
2023/11/03 12:31:13;;;;;;;;;;;;;;;9.51;100.00;97048.16;5021043;28;19918;-86
2023/11/03 12:33:39;;;;;;;;;;;;;;;9.56;100.00;97054.75;4997576;28;19964;-84
2023/11/03 12:36:08;;;;;;;;;;;;;;;9.52;100.00;97048.03;4996418;28;19917;-83
2023/11/03 12:38:46;;;;;;;;;;;;;;;9.52;100.00;97058.59;5014027;28;19940;-85
2023/11/03 12:41:15;;;;;;;;;;;;;;;9.51;100.00;97043.72;5013416;28;19944;-88
2023/11/03 12:44:04;;;;;;;;;;;;;;;9.55;100.00;97049.59;4996000;28;20397;-83
2023/11/03 12:46:30;;;;;;;;;;;;;;;9.60;100.00;97050.88;4995617;28;19921;-85
2023/11/03 12:49:08;;;;;;;;;;;;;;;9.55;100.00;97047.78;4996190;28;19928;-86
2023/11/03 12:51:34;;;;;;;;;;;;;;;9.54;100.00;97047.91;5010041;28;19932;-91
2023/11/03 12:54:00;;;;;;;;;;;;;;;9.53;100.00;97046.25;4995399;28;19922;-85
2023/11/03 12:56:28;;;;;;;;;;;;;;;9.54;100.00;97043.47;5008531;28;19925;-87
2023/11/03 12:58:53;;;;;;;;;;;;;;;9.58;100.00;97046.69;5010768;28;19926;-88
2023/11/03 13:01:20;;;;;;;;;;;;;;;9.62;100.00;97046.31;5009981;28;19923;-88
2023/11/03 13:03:46;;;;;;;;;;;;;;;9.57;100.00;97045.88;5010605;28;19933;-90
2023/11/03 13:06:12;;;;;;;;;;;;;;;9.55;100.00;97037.22;5012282;28;19983;-88
2023/11/03 13:08:39;;;;;;;;;;;;;;;9.54;100.00;97042.63;4994816;28;20380;-88
2023/11/03 13:11:07;;;;;;;;;;;;;;;9.62;100.00;97038.41;5012127;28;19921;-86
2023/11/03 13:13:34;;;;;;;;;;;;;;;9.62;100.00;97032.25;4995199;28;20132;-86
2023/11/03 13:16:01;;;;;;;;;;;;;;;9.69;100.00;97035.25;5011886;28;19921;-88
2023/11/03 13:18:26;;;;;;;;;;;;;;;9.62;100.00;97033.09;5013183;28;19923;-87
2023/11/03 13:20:51;;;;;;;;;;;;;;;9.64;100.00;97036.44;5013372;28;20007;-87
2023/11/03 13:23:17;;;;;;;;;;;;;;;9.58;100.00;97036.94;5013379;28;20319;-86
2023/11/03 13:25:42;;;;;;;;;;;;;;;9.63;100.00;97040.06;4995691;28;20369;-87
2023/11/03 13:28:07;;;;;;;;;;;;;;;9.64;100.00;97047.03;4995465;28;19925;-85
2023/11/03 13:30:33;;;;;;;;;;;;;;;9.66;100.00;97043.44;5010740;28;20392;-84
2023/11/03 13:32:58;;;;;;;;;;;;;;;9.62;100.00;97045.47;5019768;28;19936;-86
2023/11/03 13:35:26;;;;;;;;;;;;;;;9.61;100.00;97052.56;4995383;28;19956;-87
2023/11/03 13:37:51;;;;;;;;;;;;;;;9.66;100.00;97048.72;4995468;28;19957;-85
2023/11/03 13:40:18;;;;;;;;;;;;;;;9.58;100.00;97063.38;5012917;28;19965;-87
2023/11/03 13:42:44;;;;;;;;;;;;;;;9.60;100.00;97064.09;4995288;28;19972;-85
2023/11/03 13:45:10;;;;;;;;;;;;;;;9.57;100.00;97061.72;5011209;28;19949;-80
2023/11/03 13:47:35;;;;;;;;;;;;;;;9.61;100.00;97078.19;5013554;28;19931;-85
2023/11/03 13:50:01;;;;;;;;;;;;;;;9.61;100.00;97060.50;4995135;28;20356;-86
2023/11/03 13:52:26;;;;;;;;;;;;;;;9.61;100.00;97073.72;5008644;28;20436;-86
2023/11/03 13:54:54;;;;;;;;;;;;;;;9.59;100.00;97074.81;5012684;28;19963;-85
2023/11/03 13:57:19;;;;;;;;;;;;;;;9.61;100.00;97071.06;4994984;28;19917;-88
2023/11/03 13:59:44;;;;;;;;;;;;;;;9.60;100.00;97071.19;5018041;28;19922;-85
2023/11/03 14:02:10;;;;;;;;;;;;;;;9.62;100.00;97074.53;5006342;28;19925;-85
2023/11/03 14:04:35;;;;;;;;;;;;;;;9.60;100.00;97079.13;4994923;28;19979;-85
2023/11/03 14:07:00;;;;;;;;;;;;;;;9.61;100.00;97081.66;5019505;28;20052;-85
2023/11/03 14:09:26;;;;;;;;;;;;;;;9.57;100.00;97077.59;5012471;28;20258;-85
2023/11/03 14:11:55;;;;;;;;;;;;;;;9.63;100.00;97081.53;5012513;28;19940;-84
2023/11/03 14:14:20;;;;;;;;;;;;;;;9.63;100.00;97086.81;4993355;28;19917;-86
2023/11/03 14:16:46;;;;;;;;;;;;;;;9.62;100.00;97085.97;4988809;28;19918;-83
2023/11/03 14:19:11;;;;;;;;;;;;;;;9.61;100.00;97075.53;5011813;28;19921;-85
2023/11/03 14:21:40;;;;;;;;;;;;;;;9.59;100.00;97080.13;5012306;28;19917;-81
2023/11/03 14:24:07;;;;;;;;;;;;;;;9.61;100.00;97084.28;4994768;28;19921;-85
2023/11/03 14:26:32;;;;;;;;;;;;;;;9.59;100.00;97080.94;5012276;28;19925;-84
2023/11/03 14:28:58;;;;;;;;;;;;;;;9.60;100.00;97087.88;5010887;28;19922;-85
2023/11/03 14:31:24;;;;;;;;;;;;;;;9.58;100.00;97087.19;5005968;28;20008;-87
2023/11/03 14:33:49;;;;;;;;;;;;;;;9.66;100.00;97083.09;4994626;28;19921;-84
2023/11/03 14:36:14;;;;;;;;;;;;;;;9.60;100.00;97087.06;5012368;28;20112;-84
2023/11/03 14:38:42;;;;;;;;;;;;;;;9.58;100.00;97092.47;4994526;28;20407;-85
2023/11/03 14:41:09;;;;;;;;;;;;;;;9.56;100.00;97099.69;5012150;28;19917;-85
2023/11/03 14:43:35;;;;;;;;;;;;;;;9.59;100.00;97101.25;4994323;28;19917;-84
2023/11/03 14:46:02;;;;;;;;;;;;;;;9.60;100.00;97101.09;5010822;28;19925;-84
2023/11/03 14:48:28;;;;;;;;;;;;;;;9.60;100.00;97102.91;5012062;28;19924;-85
2023/11/03 14:50:54;;;;;;;;;;;;;;;9.58;100.00;97105.69;5011976;28;20375;-84
2023/11/03 14:53:19;;;;;;;;;;;;;;;9.61;100.00;97099.31;4994526;28;19918;-86
2023/11/03 14:55:44;;;;;;;;;;;;;;;9.59;100.00;97107.38;5018872;28;20296;-84
2023/11/03 14:58:11;;;;;;;;;;;;;;;9.61;100.00;97108.09;5012199;28;20024;-85
2023/11/03 15:00:36;;;;;;;;;;;;;;;9.58;100.00;97110.97;5010514;28;19976;-85
2023/11/03 15:03:01;;;;;;;;;;;;;;;9.60;100.00;97114.31;5012096;28;19917;-86
2023/11/03 15:05:28;;;;;;;;;;;;;;;9.61;100.00;97115.19;4994032;28;20367;-83
2023/11/03 15:07:53;;;;;;;;;;;;;;;9.62;100.00;97119.50;5011901;28;19921;-84
2023/11/03 15:10:19;;;;;;;;;;;;;;;9.61;100.00;97120.47;4994297;28;19972;-84
2023/11/03 15:12:45;;;;;;;;;;;;;;;9.64;100.00;97125.50;5011773;28;19995;-85
2023/11/03 15:15:13;;;;;;;;;;;;;;;9.65;100.00;97127.19;5010897;28;20391;-85
2023/11/03 15:17:39;;;;;;;;;;;;;;;9.63;100.00;97134.41;5011791;28;19918;-86
2023/11/03 15:20:11;;;;;;;;;;;;;;;9.65;100.00;97129.81;4994347;28;19925;-88
2023/11/03 15:22:36;;;;;;;;;;;;;;;9.61;100.00;97141.63;5013429;28;19929;-85
2023/11/03 15:25:01;;;;;;;;;;;;;;;9.64;100.00;97141.38;4994236;28;19917;-85
2023/11/03 15:27:27;;;;;;;;;;;;;;;9.68;100.00;97142.78;4993977;28;20460;-85
2023/11/03 15:29:53;;;;;;;;;;;;;;;9.67;100.00;97145.56;4992858;28;19921;-86
2023/11/03 15:32:18;;;;;;;;;;;;;;;9.60;100.00;97146.06;5015022;28;20375;-86
2023/11/03 15:34:44;;;;;;;;;;;;;;;9.60;100.00;97150.50;5015228;28;19922;-85
2023/11/03 15:37:10;;;;;;;;;;;;;;;9.62;100.00;97148.56;5015293;28;19918;-85
2023/11/03 15:39:35;;;;;;;;;;;;;;;9.61;100.00;97154.84;5015360;28;19925;-88
2023/11/03 15:42:01;;;;;;;;;;;;;;;9.62;100.00;97156.50;5016627;28;20432;-85
2023/11/03 15:44:27;;;;;;;;;;;;;;;9.63;100.00;97158.19;5013902;28;19921;-87
2023/11/03 15:46:54;;;;;;;;;;;;;;;9.66;100.00;97159.75;5014131;28;20147;-88
2023/11/03 15:49:21;;;;;;;;;;;;;;;9.62;100.00;97165.28;5015043;28;19917;-87
2023/11/03 15:51:47;;;;;;;;;;;;;;;9.63;100.00;97166.94;5005712;28;20364;-83
2023/11/03 15:54:12;;;;;;;;;;;;;;;9.64;100.00;97173.94;5015005;28;19925;-85
2023/11/03 15:56:37;;;;;;;;;;;;;;;9.62;100.00;97175.00;5014768;28;20387;-85
2023/11/03 15:59:02;;;;;;;;;;;;;;;9.66;100.00;97167.69;5013566;28;19983;-84
2023/11/03 16:01:28;;;;;;;;;;;;;;;9.63;100.00;97182.81;5014913;28;19924;-87
2023/11/03 16:04:03;;;;;;;;;;;;;;;9.64;100.00;97184.50;5021744;28;19917;-88
2023/11/03 16:06:30;;;;;;;;;;;;;;;9.61;100.00;97184.75;4996985;28;20064;-83
2023/11/03 16:08:57;;;;;;;;;;;;;;;9.59;100.00;97184.03;5021564;28;19917;-83
2023/11/03 16:11:23;;;;;;;;;;;;;;;9.61;100.00;97179.47;5014464;28;20052;-88
2023/11/03 16:13:48;;;;;;;;;;;;;;;9.61;100.00;97192.69;5013380;28;20282;-83
2023/11/03 16:16:14;;;;;;;;;;;;;;;9.62;100.00;97190.88;4996756;28;19921;-86
2023/11/03 16:18:39;;;;;;;;;;;;;;;9.60;100.00;97198.91;5014498;28;19925;-83
2023/11/03 16:21:04;;;;;;;;;;;;;;;9.62;100.00;97193.50;4996873;28;19918;-83
2023/11/03 16:23:31;;;;;;;;;;;;;;;9.68;100.00;97190.38;5021419;28;20328;-86
2023/11/03 16:25:56;;;;;;;;;;;;;;;9.62;100.00;97190.88;5021609;28;20020;-89
2023/11/03 16:28:21;;;;;;;;;;;;;;;9.61;100.00;97190.03;4997371;28;20016;-84
2023/11/03 16:30:47;;;;;;;;;;;;;;;9.59;100.00;97189.34;4995320;28;20460;-83
2023/11/03 16:33:12;;;;;;;;;;;;;;;9.61;100.00;97205.91;5020997;28;20377;-84
2023/11/03 16:35:38;;;;;;;;;;;;;;;9.61;100.00;97199.78;4997938;28;19975;-93
2023/11/03 16:38:07;;;;;;;;;;;;;;;9.56;100.00;97208.09;4996347;28;19972;-84
2023/11/03 16:40:34;;;;;;;;;;;;;;;9.59;100.00;97213.13;4996542;28;19953;-85
2023/11/03 16:43:00;;;;;;;;;;;;;;;9.61;100.00;97207.72;5013476;28;20369;-83
2023/11/03 16:45:26;;;;;;;;;;;;;;;9.63;100.00;97211.91;5012449;28;19929;-84
2023/11/03 16:47:54;;;;;;;;;;;;;;;9.62;100.00;97207.59;4996169;28;19985;-83
2023/11/03 16:50:20;;;;;;;;;;;;;;;9.62;100.00;97207.59;4989441;28;20004;-89
2023/11/03 16:52:46;;;;;;;;;;;;;;;9.64;100.00;97210.13;5013713;28;19937;-83
2023/11/03 16:55:13;;;;;;;;;;;;;;;9.65;100.00;97217.06;4996160;28;19921;-84
2023/11/03 16:57:39;;;;;;;;;;;;;;;9.67;100.00;97209.00;5013090;28;20012;-86
2023/11/03 17:00:11;;;;;;;;;;;;;;;9.66;100.00;97208.19;5012427;28;20476;-83
2023/11/03 17:02:36;;;;;;;;;;;;;;;9.64;100.00;97216.22;5013654;28;19964;-83
2023/11/03 17:05:07;;;;;;;;;;;;;;;9.63;100.00;97221.66;5013595;28;19967;-94
2023/11/03 17:07:32;;;;;;;;;;;;;;;9.65;100.00;97222.34;4995987;28;19968;-84
2023/11/03 17:09:58;;;;;;;;;;;;;;;9.68;100.00;97226.56;5013258;28;20380;-82
2023/11/03 17:12:24;;;;;;;;;;;;;;;9.66;100.00;97231.16;5013667;28;19917;-83
2023/11/03 17:14:49;;;;;;;;;;;;;;;9.61;100.00;97229.69;5011135;28;19920;-84
2023/11/03 17:17:16;;;;;;;;;;;;;;;9.64;100.00;97231.28;5013303;28;19922;-83
2023/11/03 17:19:43;;;;;;;;;;;;;;;9.63;100.00;97235.69;5013383;28;19937;-89
2023/11/03 17:22:09;;;;;;;;;;;;;;;9.63;100.00;97234.88;5012990;28;19959;-83
2023/11/03 17:24:34;;;;;;;;;;;;;;;9.68;100.00;97242.44;5013392;28;20008;-86
2023/11/03 17:26:59;;;;;;;;;;;;;;;9.67;100.00;97246.03;5014342;28;19977;-83
2023/11/03 17:29:24;;;;;;;;;;;;;;;9.64;100.00;97245.31;5011905;28;20606;-83
2023/11/03 17:31:51;;;;;;;;;;;;;;;9.69;100.00;97244.97;5013551;28;19989;-82
2023/11/03 17:34:18;;;;;;;;;;;;;;;9.63;100.00;97243.63;5013112;28;20020;-82
2023/11/03 17:37:06;;;;;;;;;;;;;;;;;;;;;
2023/11/03 17:39:32;;;;;;;;;;;;;;;9.64;100.00;97258.53;5012135;28;20391;-83
2023/11/03 17:41:57;;;;;;;;;;;;;;;9.63;100.00;97248.09;5012779;28;20012;-83
2023/11/03 17:44:22;;;;;;;;;;;;;;;9.67;100.00;97246.88;5011759;28;19948;-84
2023/11/03 17:46:48;;;;;;;;;;;;;;;9.61;100.00;97250.84;4995013;28;19928;-86
2023/11/03 17:49:16;;;;;;;;;;;;;;;9.63;100.00;97246.28;5012788;28;19921;-82
2023/11/03 17:51:42;;;;;;;;;;;;;;;9.62;100.00;97249.91;5012702;28;19965;-92
2023/11/03 17:54:08;;;;;;;;;;;;;;;9.62;100.00;97249.03;5011889;28;19953;-84
2023/11/03 17:56:33;;;;;;;;;;;;;;;9.64;100.00;97247.97;5012868;28;19948;-82
2023/11/03 17:59:09;;;;;;;;;;;;;;;9.65;100.00;97251.44;5011378;28;19922;-92
2023/11/03 18:01:34;;;;;;;;;;;;;;;9.64;100.00;97245.31;5012644;28;19921;-83
2023/11/03 18:04:00;;;;;;;;;;;;;;;9.66;100.00;97249.66;5012578;28;19920;-85
2023/11/03 18:06:27;;;;;;;;;;;;;;;9.67;100.00;97246.03;5012643;28;19930;-84
2023/11/03 18:08:53;;;;;;;;;;;;;;;9.58;100.00;97245.81;5012378;28;19917;-84
2023/11/03 18:11:19;;;;;;;;;;;;;;;9.64;100.00;97242.66;5012636;28;19940;-87
2023/11/03 18:13:47;;;;;;;;;;;;;;;9.59;100.00;97250.13;5012266;28;19917;-89
2023/11/03 18:16:14;;;;;;;;;;;;;;;9.63;100.00;97251.56;5015193;28;19917;-91
2023/11/03 18:18:40;;;;;;;;;;;;;;;9.64;100.00;97252.41;5000119;28;19922;-86
2023/11/03 18:21:05;;;;;;;;;;;;;;;9.64;100.00;97252.41;4999769;28;20410;-84
2023/11/03 18:23:30;;;;;;;;;;;;;;;9.59;100.00;97258.06;4991941;28;20024;-90
2023/11/03 18:25:55;;;;;;;;;;;;;;;9.61;100.00;97250.84;4999786;28;19937;-85
2023/11/03 18:28:21;;;;;;;;;;;;;;;9.59;100.00;97250.13;4991812;28;20020;-88
2023/11/03 18:30:46;;;;;;;;;;;;;;;9.66;100.00;97257.59;4990197;28;19922;-85
2023/11/03 18:33:11;;;;;;;;;;;;;;;9.58;100.00;97253.72;4997617;28;20016;-85
2023/11/03 18:35:36;;;;;;;;;;;;;;;9.66;100.00;97254.94;4985729;28;20332;-88
2023/11/03 18:38:03;;;;;;;;;;;;;;;9.65;100.00;97248.78;4993185;28;19921;-92
2023/11/03 18:40:28;;;;;;;;;;;;;;;9.59;100.00;97247.50;4991825;28;20403;-90
2023/11/03 18:42:54;;;;;;;;;;;;;;;9.58;100.00;97247.63;4992287;28;19925;-84